createdAt,value
2023-10-26T00:04:00.822Z,5.55
2023-10-26T00:14:04.346Z,5.51
2023-10-26T00:24:08.707Z,5.59
2023-10-26T00:34:12.053Z,5.67
2023-10-26T00:44:15.143Z,5.75
2023-10-26T00:54:21.455Z,5.87
2023-10-26T01:04:24.804Z,6.04
2023-10-26T01:14:29.172Z,6.06
2023-10-26T01:24:32.722Z,6.20
2023-10-26T01:34:36.069Z,6.24
2023-10-26T01:44:40.695Z,6.08
2023-10-26T01:54:44.361Z,6.02
2023-10-26T02:04:47.865Z,6.13
2023-10-26T02:14:51.220Z,6.20
2023-10-26T02:24:54.522Z,6.18
2023-10-26T02:34:57.955Z,5.97
2023-10-26T02:45:01.278Z,5.97
2023-10-26T02:55:07.095Z,5.95
2023-10-26T03:05:10.456Z,5.85
2023-10-26T03:15:13.826Z,5.83
2023-10-26T03:25:18.406Z,5.75
2023-10-26T03:35:21.559Z,5.69
2023-10-26T03:45:28.495Z,5.60
2023-10-26T03:55:31.786Z,5.77
2023-10-26T04:05:35.633Z,5.97
2023-10-26T04:15:38.871Z,5.99
2023-10-26T04:25:53.746Z,6.06
2023-10-26T04:36:01.348Z,6.29
2023-10-26T04:46:04.902Z,6.32
2023-10-26T04:56:08.265Z,6.34
2023-10-26T05:06:11.869Z,6.46
2023-10-26T05:16:15.377Z,6.47
2023-10-26T05:26:18.610Z,6.66
2023-10-26T05:36:21.836Z,6.74
2023-10-26T05:46:25.265Z,6.69
2023-10-26T05:56:28.469Z,6.87
2023-10-26T06:06:31.758Z,7.17
2023-10-26T06:16:35.489Z,7.49
2023-10-26T06:26:39.034Z,7.84
2023-10-26T06:36:42.404Z,8.11
2023-10-26T06:46:45.693Z,8.45
2023-10-26T06:56:49.344Z,8.84
2023-10-26T07:06:52.470Z,9.18
2023-10-26T07:16:55.823Z,9.63
2023-10-26T07:26:59.288Z,10.09
2023-10-26T07:37:02.583Z,10.28
2023-10-26T07:47:10.131Z,10.59
2023-10-26T07:57:13.702Z,10.97
2023-10-26T08:07:17.046Z,11.50
2023-10-26T08:17:20.660Z,11.65
2023-10-26T08:27:25.169Z,11.83
2023-10-26T08:37:29.427Z,11.98
2023-10-26T08:47:33.698Z,12.17
2023-10-26T08:57:52.155Z,12.57
2023-10-26T09:07:55.748Z,13.05
2023-10-26T09:17:59.302Z,13.51
2023-10-26T09:28:06.535Z,13.88
2023-10-26T09:38:09.892Z,14.00
2023-10-26T09:48:13.372Z,14.30
2023-10-26T09:58:17.970Z,15.02
2023-10-26T10:08:58.803Z,15.50
2023-10-26T10:19:21.974Z,15.80
2023-10-26T10:29:25.029Z,16.20
2023-10-26T10:39:28.221Z,16.39
2023-10-26T10:49:31.729Z,16.34
2023-10-26T10:59:34.868Z,16.27
2023-10-26T11:09:41.273Z,15.99
2023-10-26T11:19:44.831Z,16.00
2023-10-26T11:30:02.511Z,16.31
2023-10-26T11:40:07.676Z,16.13
2023-10-26T11:50:21.137Z,16.75
2023-10-26T12:00:25.651Z,16.99
2023-10-26T12:10:29.011Z,16.81
2023-10-26T12:20:32.163Z,17.08
2023-10-26T12:30:35.784Z,17.13
2023-10-26T12:40:39.172Z,17.23
2023-10-26T12:50:42.195Z,16.99
2023-10-26T13:00:46.639Z,16.96
2023-10-26T13:10:49.806Z,17.11
2023-10-26T13:20:52.888Z,17.20
2023-10-26T13:30:55.968Z,17.05
2023-10-26T13:40:59.411Z,16.93
2023-10-26T13:51:02.532Z,16.86
2023-10-26T14:01:13.878Z,16.65
2023-10-26T14:11:17.507Z,16.49
2023-10-26T14:21:20.664Z,16.10
2023-10-26T14:31:26.417Z,15.73
2023-10-26T14:41:29.928Z,15.25
2023-10-26T14:51:33.250Z,14.75
2023-10-26T15:01:37.070Z,14.23
2023-10-26T15:11:50.778Z,13.86
2023-10-26T15:22:01.419Z,13.65
2023-10-26T15:32:05.178Z,13.47
2023-10-26T15:42:16.082Z,13.35
2023-10-26T15:52:19.521Z,13.26
2023-10-26T16:02:23.100Z,13.09
2023-10-26T16:12:26.771Z,12.99
2023-10-26T16:22:29.870Z,12.83
2023-10-26T16:32:36.074Z,12.47
2023-10-26T16:42:39.326Z,12.14
2023-10-26T16:52:42.782Z,11.93
2023-10-26T17:02:47.453Z,11.84
2023-10-26T17:12:50.800Z,11.83
2023-10-26T17:22:53.869Z,11.83
2023-10-26T17:32:57.583Z,11.73
2023-10-26T17:43:00.777Z,11.68
2023-10-26T17:53:03.969Z,11.55
2023-10-26T18:03:07.240Z,11.38
2023-10-26T18:13:11.571Z,11.26
2023-10-26T18:23:14.731Z,11.04
2023-10-26T18:33:18.334Z,10.70
2023-10-26T18:43:23.135Z,10.43
2023-10-26T18:53:27.126Z,10.27
2023-10-26T19:03:35.973Z,10.08
2023-10-26T19:13:41.575Z,9.97
2023-10-26T19:23:44.809Z,9.98
2023-10-26T19:33:49.568Z,10.05
2023-10-26T19:43:53.510Z,9.98
2023-10-26T19:53:56.581Z,9.89
2023-10-26T20:03:59.791Z,9.69
2023-10-26T20:14:04.110Z,9.50
2023-10-26T20:24:09.455Z,9.32
2023-10-26T20:34:18.486Z,9.25
2023-10-26T20:44:21.918Z,9.13
2023-10-26T20:54:25.136Z,9.07
2023-10-26T21:04:28.383Z,9.21
2023-10-26T21:14:32.171Z,9.37
2023-10-26T21:24:35.449Z,9.41
2023-10-26T21:34:38.624Z,9.46
2023-10-26T21:44:41.730Z,9.31
2023-10-26T21:54:45.004Z,9.35
2023-10-26T22:04:50.369Z,9.56
2023-10-26T22:14:54.858Z,9.80
2023-10-26T22:24:57.868Z,9.98
2023-10-26T22:35:02.285Z,10.18
2023-10-26T22:45:06.301Z,10.26
2023-10-26T22:55:09.461Z,10.47
2023-10-26T23:05:12.685Z,10.64
2023-10-26T23:15:16.217Z,10.70
2023-10-26T23:25:19.414Z,10.79
2023-10-26T23:35:22.532Z,10.95
2023-10-26T23:45:26.083Z,10.95
2023-10-26T23:55:29.224Z,11.14
